Time;durP1;ratioP1;P1;durP2;ratioP2;P2;SDS_P1;SDS_P2;PMS_P1;PMS_P2;Temp;Humidity;BMP_temperature;BMP_pressure;BME280_temperature;BME280_humidity;BME280_pressure;Samples;Min_cycle;Max_cycle;Signal;HPM_P1;HPM_P2
2022/03/20 00:02:04;;;;;;;;;;;21.20;99.90;;;;;;5052577;28;19919;-70
2022/03/20 00:04:31;;;;;;;;;;;21.20;99.90;;;;;;5052086;28;19909;-70
2022/03/20 00:06:57;;;;;;;;;;;21.40;99.90;;;;;;5051720;28;19916;-70
2022/03/20 00:09:24;;;;;;;;;;;21.50;99.90;;;;;;5052434;28;19908;-70
2022/03/20 00:11:51;;;;;;;;;;;21.60;99.90;;;;;;5052269;28;19962;-69
2022/03/20 00:14:17;;;;;;;;;;;21.80;99.90;;;;;;5052343;28;19915;-70
2022/03/20 00:16:44;;;;;;;;;;;21.90;99.90;;;;;;5052584;28;20278;-70
2022/03/20 00:19:11;;;;;;;;;;;22.00;99.90;;;;;;5052277;28;19974;-69
2022/03/20 00:21:37;;;;;;;;;;;22.10;99.90;;;;;;5052003;28;20177;-70
2022/03/20 00:24:05;;;;;;;;;;;22.10;99.90;;;;;;5051849;28;19999;-70
2022/03/20 00:26:31;;;;;;;;;;;22.10;99.90;;;;;;5052115;28;19951;-70
2022/03/20 00:28:58;;;;;;;;;;;22.10;99.90;;;;;;5052378;28;19913;-70
2022/03/20 00:31:25;;;;;;;;;;;22.20;99.90;;;;;;5052124;28;19944;-69
2022/03/20 00:33:52;;;;;;;;;;;22.40;99.90;;;;;;5051989;28;19909;-70
2022/03/20 00:36:19;;;;;;;;;;;22.30;99.90;;;;;;5051990;28;19909;-70
2022/03/20 00:38:45;;;;;;;;;;;22.20;99.90;;;;;;5052025;28;19920;-70
2022/03/20 00:41:12;;;;;;;;;;;22.20;99.90;;;;;;5052093;28;20286;-69
2022/03/20 00:43:38;;;;;;;;;;;22.30;99.90;;;;;;5052153;28;19916;-70
2022/03/20 00:46:05;;;;;;;;;;;22.40;99.90;;;;;;5051735;28;19920;-68
2022/03/20 00:48:32;;;;;;;;;;;22.30;99.90;;;;;;5051736;28;19963;-69
2022/03/20 00:51:03;;;;;;;;;;;22.30;99.90;;;;;;5051802;28;19916;-70
2022/03/20 00:53:30;;;;;;;;;;;22.30;99.90;;;;;;5051453;28;20262;-69
2022/03/20 00:55:57;;;;;;;;;;;22.40;99.90;;;;;;5052072;28;19908;-70
2022/03/20 00:58:24;;;;;;;;;;;22.40;99.90;;;;;;5051893;28;19913;-70
2022/03/20 01:00:50;;;;;;;;;;;22.60;99.90;;;;;;5051698;28;19917;-70
2022/03/20 01:03:17;;;;;;;;;;;22.60;99.90;;;;;;5053166;28;20262;-69
2022/03/20 01:05:44;;;;;;;;;;;22.60;99.90;;;;;;5055767;28;19913;-69
2022/03/20 01:08:10;;;;;;;;;;;22.60;99.90;;;;;;5055006;28;19909;-70
2022/03/20 01:10:37;;;;;;;;;;;22.70;99.90;;;;;;5055703;28;19909;-69
2022/03/20 01:13:04;;;;;;;;;;;22.80;99.90;;;;;;5055594;28;20315;-69
2022/03/20 01:15:31;;;;;;;;;;;23.00;99.90;;;;;;5055720;28;20377;-69
2022/03/20 01:17:58;;;;;;;;;;;23.10;99.90;;;;;;5055403;28;19924;-69
2022/03/20 01:20:25;;;;;;;;;;;23.40;99.90;;;;;;5055025;28;19917;-69
2022/03/20 01:22:52;;;;;;;;;;;23.60;99.90;;;;;;5055235;28;19924;-69
2022/03/20 01:25:18;;;;;;;;;;;23.60;99.90;;;;;;5055400;28;19908;-69
2022/03/20 01:27:45;;;;;;;;;;;23.60;99.90;;;;;;5055776;28;19940;-69
2022/03/20 01:30:12;;;;;;;;;;;23.70;99.90;;;;;;5054926;28;19916;-70
2022/03/20 01:32:39;;;;;;;;;;;23.70;99.90;;;;;;5055337;28;19916;-69
2022/03/20 01:35:08;;;;;;;;;;;23.90;99.90;;;;;;5055392;28;20011;-69
2022/03/20 01:37:35;;;;;;;;;;;23.80;99.90;;;;;;5054412;28;19913;-70
2022/03/20 01:40:01;;;;;;;;;;;23.90;99.90;;;;;;5037333;28;20376;-69
2022/03/20 01:42:28;;;;;;;;;;;24.10;99.90;;;;;;5055612;28;19935;-69
2022/03/20 01:44:55;;;;;;;;;;;24.00;99.90;;;;;;5055280;28;19908;-69
2022/03/20 01:47:21;;;;;;;;;;;24.10;99.90;;;;;;5055263;28;19909;-69
2022/03/20 01:49:48;;;;;;;;;;;24.00;99.90;;;;;;5054940;28;19919;-69
2022/03/20 01:52:23;;;;;;;;;;;23.90;99.90;;;;;;5054234;28;20344;-69
2022/03/20 01:54:50;;;;;;;;;;;23.90;99.90;;;;;;5046824;28;19915;-69
2022/03/20 01:57:17;;;;;;;;;;;23.90;99.90;;;;;;5055100;28;20276;-69
2022/03/20 01:59:44;;;;;;;;;;;23.90;99.90;;;;;;5054816;28;19925;-69
2022/03/20 02:02:11;;;;;;;;;;;23.80;99.90;;;;;;5054627;28;20227;-69
2022/03/20 02:04:38;;;;;;;;;;;23.70;99.90;;;;;;5054857;28;19909;-70
2022/03/20 02:07:05;;;;;;;;;;;23.70;99.90;;;;;;5054426;28;20046;-69
2022/03/20 02:09:32;;;;;;;;;;;23.70;99.90;;;;;;5054682;28;19916;-69
2022/03/20 02:11:59;;;;;;;;;;;23.60;99.90;;;;;;5054589;28;19966;-69
2022/03/20 02:14:26;;;;;;;;;;;23.70;99.90;;;;;;5053170;28;19909;-69
2022/03/20 02:16:53;;;;;;;;;;;23.70;99.90;;;;;;5054279;28;19975;-69
2022/03/20 02:19:20;;;;;;;;;;;23.70;99.90;;;;;;5054377;28;20390;-69
2022/03/20 02:21:47;;;;;;;;;;;23.70;99.90;;;;;;5053894;28;19915;-70
2022/03/20 02:24:38;;;;;;;;;;;23.50;99.90;;;;;;5054171;28;20518;-69
2022/03/20 02:27:12;;;;;;;;;;;23.50;99.90;;;;;;5054601;28;19937;-69
2022/03/20 02:29:40;;;;;;;;;;;23.60;99.90;;;;;;5054794;28;19909;-69
2022/03/20 02:32:07;;;;;;;;;;;23.50;99.90;;;;;;5054221;28;19932;-69
2022/03/20 02:34:34;;;;;;;;;;;23.50;99.90;;;;;;5054081;28;19935;-70
2022/03/20 02:37:01;;;;;;;;;;;23.50;99.90;;;;;;5053538;28;19913;-69
2022/03/20 02:39:29;;;;;;;;;;;23.50;99.90;;;;;;5054373;28;19909;-69
2022/03/20 02:41:57;;;;;;;;;;;23.50;99.90;;;;;;5054374;28;19916;-69
2022/03/20 02:44:41;;;;;;;;;;;23.50;99.90;;;;;;5053889;28;19982;-69
2022/03/20 02:47:08;;;;;;;;;;;23.60;99.90;;;;;;5054336;28;19909;-69
2022/03/20 02:49:37;;;;;;;;;;;23.60;99.90;;;;;;5053903;28;20390;-69
2022/03/20 02:52:03;;;;;;;;;;;23.70;99.90;;;;;;5053884;28;20355;-69
2022/03/20 02:54:31;;;;;;;;;;;23.70;99.90;;;;;;5053607;28;20367;-70
2022/03/20 02:56:58;;;;;;;;;;;23.70;99.90;;;;;;5053724;28;20355;-69
2022/03/20 02:59:25;;;;;;;;;;;23.70;99.90;;;;;;5053614;28;19916;-70
2022/03/20 03:01:51;;;;;;;;;;;23.70;99.90;;;;;;5054360;28;20352;-69
2022/03/20 03:04:20;;;;;;;;;;;23.70;99.90;;;;;;5053010;28;19967;-69
2022/03/20 03:06:46;;;;;;;;;;;23.70;99.90;;;;;;5045414;28;20000;-69
2022/03/20 03:11:58;;;;;;;;;;;23.50;99.90;;;;;;5053803;28;19915;-69
2022/03/20 03:17:09;;;;;;;;;;;23.50;99.90;;;;;;5053772;28;19932;-70
2022/03/20 03:19:35;;;;;;;;;;;23.60;99.90;;;;;;5052411;28;19917;-69
2022/03/20 03:22:03;;;;;;;;;;;23.90;99.90;;;;;;5053092;28;19912;-69
2022/03/20 03:24:29;;;;;;;;;;;23.90;99.90;;;;;;5053312;28;19954;-69
2022/03/20 03:26:56;;;;;;;;;;;24.10;99.90;;;;;;5052832;28;19951;-69
2022/03/20 03:29:22;;;;;;;;;;;24.00;99.90;;;;;;5053207;28;19908;-69
2022/03/20 03:31:49;;;;;;;;;;;23.90;99.90;;;;;;5053318;28;19998;-69
2022/03/20 03:37:05;;;;;;;;;;;23.90;99.90;;;;;;5000111;28;19948;-70
2022/03/20 03:39:32;;;;;;;;;;;23.90;99.90;;;;;;5052903;28;19948;-69
2022/03/20 03:41:58;;;;;;;;;;;23.90;99.90;;;;;;5053057;28;19909;-70
2022/03/20 03:44:26;;;;;;;;;;;23.90;99.90;;;;;;5057312;28;20374;-69
2022/03/20 03:46:57;;;;;;;;;;;23.80;99.90;;;;;;5051253;28;20347;-70
2022/03/20 03:49:24;;;;;;;;;;;23.70;99.90;;;;;;5050892;28;19938;-69
2022/03/20 03:51:50;;;;;;;;;;;23.80;99.90;;;;;;5052249;28;19915;-69
2022/03/20 03:54:17;;;;;;;;;;;23.80;99.90;;;;;;5052364;28;19921;-69
2022/03/20 03:56:44;;;;;;;;;;;23.80;99.90;;;;;;5052616;28;20291;-70
2022/03/20 03:59:10;;;;;;;;;;;23.90;99.90;;;;;;5052413;28;19991;-69
2022/03/20 04:01:37;;;;;;;;;;;24.00;99.90;;;;;;5052056;28;19924;-70
2022/03/20 04:04:04;;;;;;;;;;;23.90;99.90;;;;;;5052343;28;19913;-69
2022/03/20 04:06:30;;;;;;;;;;;23.80;99.90;;;;;;5052639;28;19920;-69
2022/03/20 04:08:57;;;;;;;;;;;23.70;99.90;;;;;;5052780;28;19908;-69
2022/03/20 04:11:24;;;;;;;;;;;23.60;99.90;;;;;;5052945;28;20147;-69
2022/03/20 04:13:50;;;;;;;;;;;23.50;99.90;;;;;;5052797;28;19913;-70
2022/03/20 04:16:18;;;;;;;;;;;23.60;99.90;;;;;;5052075;28;20346;-70
2022/03/20 04:18:45;;;;;;;;;;;23.70;99.90;;;;;;5052347;28;20004;-69
2022/03/20 04:21:11;;;;;;;;;;;23.70;99.90;;;;;;5052579;28;19917;-70
2022/03/20 04:23:48;;;;;;;;;;;23.60;99.90;;;;;;5052530;28;19996;-70
2022/03/20 04:26:20;;;;;;;;;;;23.50;99.90;;;;;;5052245;28;20347;-69
2022/03/20 04:28:47;;;;;;;;;;;23.40;99.90;;;;;;5052574;28;19909;-69
2022/03/20 04:31:15;;;;;;;;;;;23.50;99.90;;;;;;5052321;28;19916;-69
2022/03/20 04:33:45;;;;;;;;;;;23.30;99.90;;;;;;5052072;28;19909;-70
2022/03/20 04:36:12;;;;;;;;;;;23.40;99.90;;;;;;5052359;28;19915;-69
2022/03/20 04:38:38;;;;;;;;;;;23.40;99.90;;;;;;5051515;28;19996;-69
2022/03/20 04:41:05;;;;;;;;;;;23.30;99.90;;;;;;5052204;28;19932;-69
2022/03/20 04:43:32;;;;;;;;;;;23.40;99.90;;;;;;5052011;28;19908;-70
2022/03/20 04:45:59;;;;;;;;;;;23.40;99.90;;;;;;5052226;28;19909;-69
2022/03/20 04:59:24;;;;;;;;;;;23.50;99.90;;;;;;5052937;28;19919;-69
2022/03/20 05:01:51;;;;;;;;;;;23.40;99.90;;;;;;5052642;28;19951;-69
2022/03/20 05:04:17;;;;;;;;;;;23.40;99.90;;;;;;5052565;28;20325;-69
2022/03/20 05:06:44;;;;;;;;;;;23.40;99.90;;;;;;5053041;28;20375;-69
2022/03/20 05:14:41;;;;;;;;;;;23.30;99.90;;;;;;5053234;28;19996;-69
2022/03/20 05:17:08;;;;;;;;;;;23.30;99.90;;;;;;5052342;28;19920;-69
2022/03/20 05:19:35;;;;;;;;;;;23.20;99.90;;;;;;5052584;28;19908;-69
2022/03/20 05:22:05;;;;;;;;;;;23.20;99.90;;;;;;5052333;28;19916;-69
2022/03/20 05:24:35;;;;;;;;;;;23.20;99.90;;;;;;5052710;28;19936;-70
2022/03/20 05:27:02;;;;;;;;;;;23.20;99.90;;;;;;5052742;28;19908;-69
2022/03/20 05:29:29;;;;;;;;;;;23.10;99.90;;;;;;5052609;28;20004;-70
2022/03/20 05:31:56;;;;;;;;;;;23.00;99.90;;;;;;5052580;28;19909;-70
2022/03/20 05:34:23;;;;;;;;;;;23.00;99.90;;;;;;5052443;28;19951;-69
2022/03/20 05:36:51;;;;;;;;;;;23.00;99.90;;;;;;5052500;28;19954;-69
2022/03/20 05:39:17;;;;;;;;;;;23.00;99.90;;;;;;5052366;28;19909;-69
2022/03/20 05:41:47;;;;;;;;;;;22.90;99.90;;;;;;5052402;28;20486;-69
2022/03/20 05:44:15;;;;;;;;;;;22.90;99.90;;;;;;5052295;28;19913;-69
2022/03/20 05:46:52;;;;;;;;;;;22.80;99.90;;;;;;5052476;28;19908;-69
2022/03/20 05:49:22;;;;;;;;;;;23.00;99.90;;;;;;5053690;28;19909;-70
2022/03/20 05:51:49;;;;;;;;;;;23.00;99.90;;;;;;5056032;28;19909;-69
2022/03/20 05:54:16;;;;;;;;;;;23.00;99.90;;;;;;5055885;28;19909;-69
2022/03/20 05:59:29;;;;;;;;;;;22.90;99.90;;;;;;5056191;28;19932;-70
2022/03/20 06:01:56;;;;;;;;;;;22.90;99.90;;;;;;5055830;28;20363;-70
2022/03/20 06:04:23;;;;;;;;;;;22.90;99.90;;;;;;5055618;28;19909;-69
2022/03/20 06:06:50;;;;;;;;;;;22.90;99.90;;;;;;5037882;28;19909;-69
2022/03/20 06:09:16;;;;;;;;;;;22.90;99.90;;;;;;5055807;28;19909;-69
2022/03/20 06:11:43;;;;;;;;;;;22.90;99.90;;;;;;5055455;28;19975;-70
2022/03/20 06:14:10;;;;;;;;;;;22.90;99.90;;;;;;5055321;28;20375;-70
2022/03/20 06:16:37;;;;;;;;;;;22.90;99.90;;;;;;5055457;28;19921;-69
2022/03/20 06:19:07;;;;;;;;;;;22.80;99.90;;;;;;5055606;28;19909;-69
2022/03/20 06:21:34;;;;;;;;;;;22.80;99.90;;;;;;5055434;28;20410;-70
2022/03/20 06:24:01;;;;;;;;;;;22.70;99.90;;;;;;5055443;28;19951;-70
2022/03/20 06:26:28;;;;;;;;;;;22.70;99.90;;;;;;5055408;28;19909;-69
2022/03/20 06:28:54;;;;;;;;;;;22.70;99.90;;;;;;5055248;28;19952;-71
2022/03/20 06:31:22;;;;;;;;;;;22.70;99.90;;;;;;5055346;28;19999;-70
2022/03/20 06:33:48;;;;;;;;;;;22.70;99.90;;;;;;5055084;28;20325;-69
2022/03/20 06:36:15;;;;;;;;;;;22.60;99.90;;;;;;5036939;28;20283;-69
2022/03/20 06:38:42;;;;;;;;;;;22.60;99.90;;;;;;5055094;28;19916;-70
2022/03/20 06:41:09;;;;;;;;;;;22.60;99.90;;;;;;5055071;28;19917;-70
2022/03/20 06:43:37;;;;;;;;;;;22.50;99.90;;;;;;5054958;28;19909;-70
2022/03/20 06:46:04;;;;;;;;;;;22.50;99.90;;;;;;5054693;28;20252;-70
2022/03/20 06:48:30;;;;;;;;;;;22.50;99.90;;;;;;5054778;28;20386;-70
2022/03/20 06:50:57;;;;;;;;;;;22.50;99.90;;;;;;5054852;28;19916;-70
2022/03/20 06:53:24;;;;;;;;;;;22.50;99.90;;;;;;5054762;28;19939;-70
2022/03/20 06:55:51;;;;;;;;;;;22.40;99.90;;;;;;5054636;28;19909;-69
2022/03/20 06:58:20;;;;;;;;;;;22.40;99.90;;;;;;5054658;28;19909;-70
2022/03/20 07:00:46;;;;;;;;;;;22.30;99.90;;;;;;5053932;28;19923;-70
2022/03/20 07:03:13;;;;;;;;;;;22.30;99.90;;;;;;5054319;28;19916;-70
2022/03/20 07:05:40;;;;;;;;;;;22.20;99.90;;;;;;5054615;28;19951;-70
2022/03/20 07:08:07;;;;;;;;;;;22.20;99.90;;;;;;5054399;28;20332;-69
2022/03/20 07:10:34;;;;;;;;;;;22.20;99.90;;;;;;5054353;28;19924;-68
2022/03/20 07:15:46;;;;;;;;;;;22.20;99.90;;;;;;5054420;28;20409;-69
2022/03/20 07:18:15;;;;;;;;;;;22.10;99.90;;;;;;5053808;28;19921;-68
2022/03/20 07:20:45;;;;;;;;;;;22.10;99.90;;;;;;5054398;28;20019;-68
2022/03/20 07:23:13;;;;;;;;;;;22.10;99.90;;;;;;5054372;28;19999;-69
2022/03/20 07:31:13;;;;;;;;;;;21.90;99.90;;;;;;5054398;28;20411;-69
2022/03/20 07:33:40;;;;;;;;;;;21.90;99.90;;;;;;5053779;28;19916;-69
2022/03/20 07:36:07;;;;;;;;;;;21.90;99.90;;;;;;5053786;28;19931;-69
2022/03/20 07:38:35;;;;;;;;;;;21.80;99.90;;;;;;5053703;28;19932;-70
2022/03/20 07:41:02;;;;;;;;;;;21.80;99.90;;;;;;5053842;28;19928;-69
2022/03/20 07:43:29;;;;;;;;;;;21.70;99.90;;;;;;5053721;28;19991;-68
2022/03/20 07:45:58;;;;;;;;;;;21.70;99.90;;;;;;5053747;28;19909;-69
2022/03/20 07:48:25;;;;;;;;;;;21.70;99.90;;;;;;5053125;28;19908;-68
2022/03/20 07:50:52;;;;;;;;;;;21.60;99.90;;;;;;5053759;28;19909;-69
2022/03/20 07:53:18;;;;;;;;;;;21.70;99.90;;;;;;5053775;28;19994;-68
2022/03/20 07:55:46;;;;;;;;;;;21.60;99.90;;;;;;5053431;28;19925;-69
2022/03/20 07:58:13;;;;;;;;;;;21.60;99.90;;;;;;5053254;28;19923;-68
2022/03/20 08:00:40;;;;;;;;;;;21.60;99.90;;;;;;5053499;28;19927;-69
2022/03/20 08:03:07;;;;;;;;;;;21.50;99.90;;;;;;5053462;28;19909;-69
2022/03/20 08:05:33;;;;;;;;;;;21.40;99.90;;;;;;5053380;28;19908;-69
2022/03/20 08:08:03;;;;;;;;;;;21.50;99.90;;;;;;5053455;28;19995;-69
2022/03/20 08:10:30;;;;;;;;;;;21.40;99.90;;;;;;5053557;28;19940;-69
2022/03/20 08:12:57;;;;;;;;;;;21.40;99.90;;;;;;5052610;28;19913;-69
2022/03/20 08:15:24;;;;;;;;;;;21.30;99.90;;;;;;5053507;28;19909;-69
2022/03/20 08:17:51;;;;;;;;;;;21.30;99.90;;;;;;5052921;28;19921;-69
2022/03/20 08:20:19;;;;;;;;;;;21.30;99.90;;;;;;5052943;28;19980;-69
2022/03/20 08:22:46;;;;;;;;;;;21.20;99.90;;;;;;5053324;28;20278;-69
2022/03/20 08:25:13;;;;;;;;;;;21.20;99.90;;;;;;5053242;28;19909;-69
2022/03/20 08:27:46;;;;;;;;;;;21.20;99.90;;;;;;5053322;28;19916;-69
2022/03/20 08:30:17;;;;;;;;;;;21.20;99.90;;;;;;5052679;28;19916;-69
2022/03/20 08:32:47;;;;;;;;;;;21.20;99.90;;;;;;5052897;28;19971;-69
2022/03/20 08:35:14;;;;;;;;;;;21.10;99.90;;;;;;5052962;28;19960;-69
2022/03/20 08:37:43;;;;;;;;;;;21.20;99.90;;;;;;5053235;28;19909;-69
2022/03/20 08:40:15;;;;;;;;;;;21.20;99.90;;;;;;5052903;28;19924;-69
2022/03/20 08:42:56;;;;;;;;;;;21.10;99.90;;;;;;5053091;28;20053;-69
2022/03/20 08:45:23;;;;;;;;;;;21.10;99.90;;;;;;5052980;28;19937;-69
2022/03/20 08:47:50;;;;;;;;;;;21.10;99.90;;;;;;5035010;28;19908;-68
2022/03/20 08:50:18;;;;;;;;;;;21.10;99.90;;;;;;5052802;28;19962;-69
2022/03/20 08:52:47;;;;;;;;;;;21.10;99.90;;;;;;5052944;28;19909;-69
2022/03/20 08:55:14;;;;;;;;;;;21.20;99.90;;;;;;5052767;28;19909;-69
2022/03/20 08:57:42;;;;;;;;;;;21.10;99.90;;;;;;5052769;28;20035;-69
2022/03/20 09:00:13;;;;;;;;;;;21.10;99.90;;;;;;5052713;28;19916;-69
2022/03/20 09:02:42;;;;;;;;;;;21.20;99.90;;;;;;5052588;28;20279;-69
2022/03/20 09:05:11;;;;;;;;;;;21.10;99.90;;;;;;5052693;28;19909;-69
2022/03/20 09:07:42;;;;;;;;;;;21.20;99.90;;;;;;5052934;28;19915;-69
2022/03/20 09:10:09;;;;;;;;;;;21.10;99.90;;;;;;5052538;28;19909;-69
2022/03/20 09:12:37;;;;;;;;;;;21.10;99.90;;;;;;5052751;28;19924;-68
2022/03/20 09:15:05;;;;;;;;;;;21.10;99.90;;;;;;5052857;28;20015;-69
2022/03/20 09:20:17;;;;;;;;;;;21.10;99.90;;;;;;5052784;28;20002;-68
2022/03/20 09:22:44;;;;;;;;;;;21.10;99.90;;;;;;5052653;28;19913;-69
2022/03/20 09:25:10;;;;;;;;;;;21.00;99.90;;;;;;5055417;28;19909;-68
2022/03/20 09:27:37;;;;;;;;;;;21.00;99.90;;;;;;5056614;28;19916;-69
2022/03/20 09:30:04;;;;;;;;;;;21.00;99.90;;;;;;5056317;28;19909;-69
2022/03/20 09:32:31;;;;;;;;;;;21.00;99.90;;;;;;5056247;28;19912;-69
2022/03/20 09:34:57;;;;;;;;;;;21.00;99.90;;;;;;5056417;28;19909;-69
2022/03/20 09:37:24;;;;;;;;;;;21.00;99.90;;;;;;5056094;28;19999;-70
2022/03/20 09:39:51;;;;;;;;;;;21.00;99.90;;;;;;5056011;28;19923;-70
2022/03/20 09:42:19;;;;;;;;;;;21.00;99.90;;;;;;5051359;28;19995;-69
2022/03/20 09:44:46;;;;;;;;;;;21.00;99.90;;;;;;5055965;28;19915;-69
2022/03/20 09:47:13;;;;;;;;;;;21.00;99.90;;;;;;5056065;28;20373;-69
2022/03/20 09:49:40;;;;;;;;;;;21.00;99.90;;;;;;5055939;28;19916;-69
2022/03/20 09:52:07;;;;;;;;;;;21.00;99.90;;;;;;5055831;28;19915;-69
2022/03/20 09:54:34;;;;;;;;;;;21.00;99.90;;;;;;5055435;28;19916;-69
2022/03/20 09:57:06;;;;;;;;;;;21.00;99.90;;;;;;5055956;28;19909;-69
2022/03/20 09:59:33;;;;;;;;;;;21.00;99.90;;;;;;5055544;28;19909;-70
2022/03/20 10:02:11;;;;;;;;;;;21.00;99.90;;;;;;5055778;28;19909;-69
2022/03/20 10:04:53;;;;;;;;;;;21.00;99.90;;;;;;5055650;28;19999;-70
2022/03/20 10:07:23;;;;;;;;;;;21.00;99.90;;;;;;5055212;28;19930;-69
2022/03/20 10:10:13;;;;;;;;;;;21.00;99.90;;;;;;5055777;28;19909;-69
2022/03/20 10:12:44;;;;;;;;;;;20.90;99.90;;;;;;5049078;28;19915;-69
2022/03/20 10:15:26;;;;;;;;;;;20.90;99.90;;;;;;5055538;28;19916;-69
2022/03/20 10:18:20;;;;;;;;;;;20.90;99.90;;;;;;5055346;28;20294;-69
2022/03/20 10:20:48;;;;;;;;;;;20.90;99.90;;;;;;5055458;28;20054;-69
2022/03/20 10:23:32;;;;;;;;;;;20.80;99.90;;;;;;5055016;28;19913;-69
2022/03/20 10:26:06;;;;;;;;;;;20.80;99.90;;;;;;5055520;28;19967;-69
2022/03/20 10:28:40;;;;;;;;;;;20.80;99.90;;;;;;5055496;28;19916;-69
2022/03/20 10:31:09;;;;;;;;;;;20.70;99.90;;;;;;5055649;28;20279;-69
2022/03/20 10:33:40;;;;;;;;;;;20.70;99.90;;;;;;5055479;28;20054;-69
2022/03/20 10:36:10;;;;;;;;;;;20.70;99.90;;;;;;5053966;28;19909;-69
2022/03/20 10:38:37;;;;;;;;;;;20.70;99.90;;;;;;5054680;28;19909;-69
2022/03/20 10:41:19;;;;;;;;;;;20.60;99.90;;;;;;5055021;28;19923;-69
2022/03/20 10:43:47;;;;;;;;;;;20.70;99.90;;;;;;5055159;28;20063;-69
2022/03/20 10:46:20;;;;;;;;;;;20.70;99.90;;;;;;5054808;28;20347;-69
2022/03/20 10:48:48;;;;;;;;;;;20.60;99.90;;;;;;5046649;28;19909;-70
2022/03/20 10:51:24;;;;;;;;;;;20.60;99.90;;;;;;5054722;28;19913;-69
2022/03/20 10:53:53;;;;;;;;;;;20.60;99.90;;;;;;5054215;28;19944;-69
2022/03/20 10:56:20;;;;;;;;;;;20.60;99.90;;;;;;5054647;28;19956;-69
2022/03/20 10:58:46;;;;;;;;;;;20.60;99.90;;;;;;5046421;28;19909;-69
2022/03/20 11:01:13;;;;;;;;;;;20.50;99.90;;;;;;5054502;28;20302;-69
2022/03/20 11:03:40;;;;;;;;;;;20.50;99.90;;;;;;5054820;28;20360;-69
2022/03/20 11:06:07;;;;;;;;;;;20.50;99.90;;;;;;5054567;28;19909;-69
2022/03/20 11:08:36;;;;;;;;;;;20.50;99.90;;;;;;5054577;28;20413;-69
2022/03/20 11:11:04;;;;;;;;;;;20.40;99.90;;;;;;5054623;28;19962;-70
2022/03/20 11:13:33;;;;;;;;;;;20.40;99.90;;;;;;5054553;28;20422;-69
2022/03/20 11:16:00;;;;;;;;;;;20.40;99.90;;;;;;5054291;28;19913;-69
2022/03/20 11:18:28;;;;;;;;;;;20.40;99.90;;;;;;5053875;28;19967;-69
2022/03/20 11:20:58;;;;;;;;;;;20.40;99.90;;;;;;5054378;28;20043;-69
2022/03/20 11:23:25;;;;;;;;;;;20.40;99.90;;;;;;5054388;28;19913;-69
2022/03/20 11:25:53;;;;;;;;;;;20.40;99.90;;;;;;5054545;28;19908;-69
2022/03/20 11:28:22;;;;;;;;;;;20.40;99.90;;;;;;5054189;28;19909;-69
2022/03/20 11:30:49;;;;;;;;;;;20.40;99.90;;;;;;5054126;28;19913;-69
2022/03/20 11:33:19;;;;;;;;;;;20.40;99.90;;;;;;5054210;28;19971;-69
2022/03/20 11:35:46;;;;;;;;;;;20.40;99.90;;;;;;5054156;28;19912;-69
2022/03/20 11:38:16;;;;;;;;;;;20.40;99.90;;;;;;5053806;28;19908;-70
2022/03/20 11:41:01;;;;;;;;;;;20.30;99.90;;;;;;5053964;28;19920;-69
2022/03/20 11:43:27;;;;;;;;;;;20.30;99.90;;;;;;5054130;28;19931;-69
2022/03/20 11:46:21;;;;;;;;;;;20.30;99.90;;;;;;5054061;28;20481;-69
2022/03/20 11:49:06;;;;;;;;;;;20.30;99.90;;;;;;5051729;28;19999;-69
2022/03/20 11:52:02;;;;;;;;;;;20.40;99.90;;;;;;5053997;28;19999;-69
2022/03/20 11:54:32;;;;;;;;;;;20.40;99.90;;;;;;5042447;28;20279;-69
2022/03/20 11:57:00;;;;;;;;;;;20.40;99.90;;;;;;5053994;28;19909;-69
2022/03/20 11:59:45;;;;;;;;;;;20.40;99.90;;;;;;5053481;28;19909;-69
2022/03/20 12:02:14;;;;;;;;;;;20.40;99.90;;;;;;5053474;28;19924;-69
2022/03/20 12:05:04;;;;;;;;;;;20.40;99.90;;;;;;5053570;28;20367;-69
2022/03/20 12:07:49;;;;;;;;;;;20.40;99.90;;;;;;5045783;28;20256;-69
2022/03/20 12:10:25;;;;;;;;;;;20.40;99.90;;;;;;5053474;28;19909;-69
2022/03/20 12:13:00;;;;;;;;;;;20.40;99.90;;;;;;5053718;28;20302;-69
2022/03/20 12:15:30;;;;;;;;;;;20.30;99.90;;;;;;5053606;28;19954;-69
2022/03/20 12:17:57;;;;;;;;;;;20.30;99.90;;;;;;5053290;28;20287;-69
2022/03/20 12:20:42;;;;;;;;;;;20.20;99.90;;;;;;5053164;28;20331;-70
2022/03/20 12:23:27;;;;;;;;;;;20.20;99.90;;;;;;5053366;28;19909;-69
2022/03/20 12:25:54;;;;;;;;;;;20.20;99.90;;;;;;5053691;28;19913;-70
2022/03/20 12:28:31;;;;;;;;;;;20.20;99.90;;;;;;5052579;28;20315;-69
2022/03/20 12:30:57;;;;;;;;;;;20.10;99.90;;;;;;5053281;28;19909;-70
2022/03/20 12:33:25;;;;;;;;;;;20.10;99.90;;;;;;5053438;28;19920;-70
2022/03/20 12:35:53;;;;;;;;;;;20.10;99.90;;;;;;5053346;28;19931;-69
2022/03/20 12:38:35;;;;;;;;;;;20.10;99.90;;;;;;5052894;28;19909;-70
2022/03/20 12:41:16;;;;;;;;;;;20.00;99.90;;;;;;5052641;28;19963;-70
2022/03/20 12:43:44;;;;;;;;;;;19.90;99.90;;;;;;5053107;28;19920;-69
2022/03/20 12:46:11;;;;;;;;;;;19.80;99.90;;;;;;5052820;28;20267;-70
2022/03/20 12:48:50;;;;;;;;;;;19.80;99.90;;;;;;5053070;28;19956;-70
2022/03/20 12:51:21;;;;;;;;;;;19.80;99.90;;;;;;5053039;28;19932;-69
2022/03/20 12:53:48;;;;;;;;;;;19.70;99.90;;;;;;5044712;28;19932;-70
2022/03/20 12:56:32;;;;;;;;;;;19.70;99.90;;;;;;5052965;28;19913;-69
2022/03/20 12:58:59;;;;;;;;;;;19.70;99.90;;;;;;5047232;28;19909;-70
2022/03/20 13:01:26;;;;;;;;;;;19.70;99.90;;;;;;5056946;28;20331;-70
2022/03/20 13:03:53;;;;;;;;;;;19.70;99.90;;;;;;5056986;28;19908;-69
2022/03/20 13:06:19;;;;;;;;;;;19.70;99.90;;;;;;5056794;28;19912;-70
2022/03/20 13:08:46;;;;;;;;;;;19.60;99.90;;;;;;5057040;28;19909;-69
2022/03/20 13:14:08;;;;;;;;;;;19.70;99.90;;;;;;5057358;28;19928;-71
2022/03/20 13:16:35;;;;;;;;;;;19.70;99.90;;;;;;5056546;28;19913;-70
2022/03/20 13:19:03;;;;;;;;;;;19.70;99.90;;;;;;5056816;28;19916;-69
2022/03/20 13:21:30;;;;;;;;;;;19.70;99.90;;;;;;5056554;28;19917;-69
2022/03/20 13:23:57;;;;;;;;;;;19.60;99.90;;;;;;5056483;28;19936;-69
2022/03/20 13:26:24;;;;;;;;;;;19.60;99.90;;;;;;5056434;28;19916;-69
2022/03/20 13:28:51;;;;;;;;;;;19.60;99.90;;;;;;5056714;28;20386;-69
2022/03/20 13:31:21;;;;;;;;;;;19.60;99.90;;;;;;5056182;28;19916;-69
2022/03/20 13:33:57;;;;;;;;;;;19.50;99.90;;;;;;5038497;28;20262;-70
2022/03/20 13:36:25;;;;;;;;;;;19.60;99.90;;;;;;5056542;28;19954;-70
2022/03/20 13:38:53;;;;;;;;;;;19.50;99.90;;;;;;5056378;28;19913;-70
2022/03/20 13:41:22;;;;;;;;;;;19.50;99.90;;;;;;5056343;28;19956;-69
2022/03/20 13:43:55;;;;;;;;;;;19.50;99.90;;;;;;5056132;28;19947;-70
2022/03/20 13:46:27;;;;;;;;;;;19.40;99.90;;;;;;5055756;28;20325;-70
2022/03/20 13:48:55;;;;;;;;;;;19.40;99.90;;;;;;5055974;28;20278;-69
2022/03/20 13:51:23;;;;;;;;;;;19.40;99.90;;;;;;5055863;28;19909;-69
2022/03/20 13:54:08;;;;;;;;;;;19.30;99.90;;;;;;5056036;28;20282;-69
2022/03/20 13:56:35;;;;;;;;;;;19.40;99.90;;;;;;5055728;28;20351;-69
2022/03/20 13:59:06;;;;;;;;;;;19.40;99.90;;;;;;5055907;28;19918;-69
2022/03/20 14:01:41;;;;;;;;;;;19.40;99.90;;;;;;5055599;28;20373;-70
2022/03/20 14:04:11;;;;;;;;;;;19.40;99.90;;;;;;5055308;28;19986;-70
2022/03/20 14:06:40;;;;;;;;;;;19.40;99.90;;;;;;5055710;28;20347;-69
2022/03/20 14:09:07;;;;;;;;;;;19.40;99.90;;;;;;5055577;28;19912;-69
2022/03/20 14:11:36;;;;;;;;;;;19.30;99.90;;;;;;5055632;28;19908;-69
2022/03/20 14:14:05;;;;;;;;;;;19.30;99.90;;;;;;5055252;28;19962;-69
2022/03/20 14:16:32;;;;;;;;;;;19.30;99.90;;;;;;5055397;28;19908;-69
2022/03/20 14:19:04;;;;;;;;;;;19.30;99.90;;;;;;5055761;28;19967;-69
2022/03/20 14:21:32;;;;;;;;;;;19.30;99.90;;;;;;5055136;28;20381;-69
2022/03/20 14:24:06;;;;;;;;;;;19.40;99.90;;;;;;5055353;28;19909;-69
2022/03/20 14:26:34;;;;;;;;;;;19.40;99.90;;;;;;5055493;28;19916;-69
2022/03/20 14:29:07;;;;;;;;;;;19.40;99.90;;;;;;5055252;28;20042;-69
2022/03/20 14:40:15;;;;;;;;;;;19.30;99.90;;;;;;5044510;28;20334;-69
2022/03/20 14:42:44;;;;;;;;;;;19.30;99.90;;;;;;5055221;28;19909;-69
2022/03/20 14:45:13;;;;;;;;;;;19.30;99.90;;;;;;5055000;28;19944;-69
2022/03/20 14:47:40;;;;;;;;;;;19.20;99.90;;;;;;5054970;28;19963;-69
2022/03/20 14:50:06;;;;;;;;;;;19.20;99.90;;;;;;5054847;28;19909;-70
2022/03/20 14:52:34;;;;;;;;;;;19.20;99.90;;;;;;5054920;28;20405;-69
2022/03/20 14:55:03;;;;;;;;;;;19.20;99.90;;;;;;5054778;28;19999;-69
2022/03/20 14:57:29;;;;;;;;;;;19.30;99.90;;;;;;5054590;28;19908;-70
2022/03/20 14:59:56;;;;;;;;;;;19.30;99.90;;;;;;5054679;28;19916;-69
2022/03/20 15:02:23;;;;;;;;;;;19.20;99.90;;;;;;5054467;28;19912;-70
2022/03/20 15:04:52;;;;;;;;;;;19.20;99.90;;;;;;5054643;28;19909;-69
2022/03/20 15:07:19;;;;;;;;;;;19.20;99.90;;;;;;5054725;28;19909;-69
2022/03/20 15:12:30;;;;;;;;;;;19.30;99.90;;;;;;5055000;28;19935;-69
2022/03/20 15:14:58;;;;;;;;;;;19.30;99.90;;;;;;5054406;28;20321;-69
2022/03/20 15:17:24;;;;;;;;;;;19.30;99.90;;;;;;5054115;28;20007;-70
2022/03/20 15:19:51;;;;;;;;;;;19.40;99.90;;;;;;5054565;28;20312;-69